Royal Slope, Washington
Current Conditions -  °F | °C
As of 1:52 AM on Saturday 20 Dec 2014 (Local Time) from KMWH Reporting Station
Haze Haze  
Wind Chill: 29°   Ceiling: 4000
Heat Index: 33°   Visibility: 6mi
Dew Point: 32°   Wind: 5mph
Humidity: 96%   Direction: 10°N
Pressure: 29.94"   Gusts: NA
Location:  46.7797°N, 119.403°W
Report Text: KMWH 200952Z 01004KT 6SM UP BR OVC040 01/00 A2994 RMK AO2 UPB31 SLP149 P0000 T00060000
Loading
Personal Weather Stations






























Interactive Weather Map New forecast layout! Learn more

10-Day Weather Forecast

Advertisements
Track Severe Weather on mobile